sensor_id;sensor_type;location;lat;lon;timestamp;P1;durP1;ratioP1;P2;durP2;ratioP2
51515;SDS011;37603;55.614;37.326;2024-02-15T00:04:23;7.7;;;3.4;;
51515;SDS011;37603;55.614;37.326;2024-02-15T00:10:22;7.6;;;3.0;;
51515;SDS011;37603;55.614;37.326;2024-02-15T00:16:20;8.3;;;3.1;;
51515;SDS011;37603;55.614;37.326;2024-02-15T00:22:19;8.6;;;3.5;;
51515;SDS011;37603;55.614;37.326;2024-02-15T00:28:17;7.1;;;3.4;;
51515;SDS011;37603;55.614;37.326;2024-02-15T00:34:15;8.2;;;3.1;;
51515;SDS011;37603;55.614;37.326;2024-02-15T00:40:14;6.7;;;3.1;;
51515;SDS011;37603;55.614;37.326;2024-02-15T00:52:11;8.1;;;3.0;;
51515;SDS011;37603;55.614;37.326;2024-02-15T00:58:09;8.0;;;3.4;;
51515;SDS011;37603;55.614;37.326;2024-02-15T01:04:07;6.8;;;3.1;;
51515;SDS011;37603;55.614;37.326;2024-02-15T01:10:06;6.4;;;2.9;;
51515;SDS011;37603;55.614;37.326;2024-02-15T01:16:05;8.6;;;3.4;;
51515;SDS011;37603;55.614;37.326;2024-02-15T01:22:03;9.2;;;2.8;;
51515;SDS011;37603;55.614;37.326;2024-02-15T01:28:01;7.6;;;3.0;;
51515;SDS011;37603;55.614;37.326;2024-02-15T01:33:59;7.5;;;2.7;;
51515;SDS011;37603;55.614;37.326;2024-02-15T01:39:58;7.6;;;2.8;;
51515;SDS011;37603;55.614;37.326;2024-02-15T01:45:56;9.0;;;3.2;;
51515;SDS011;37603;55.614;37.326;2024-02-15T01:51:55;6.5;;;2.7;;
51515;SDS011;37603;55.614;37.326;2024-02-15T01:57:53;8.8;;;3.1;;
51515;SDS011;37603;55.614;37.326;2024-02-15T02:03:51;7.5;;;2.7;;
51515;SDS011;37603;55.614;37.326;2024-02-15T02:09:50;5.4;;;2.8;;
51515;SDS011;37603;55.614;37.326;2024-02-15T02:15:48;6.3;;;2.6;;
51515;SDS011;37603;55.614;37.326;2024-02-15T02:21:47;7.3;;;2.6;;
51515;SDS011;37603;55.614;37.326;2024-02-15T02:27:45;12.1;;;3.9;;
51515;SDS011;37603;55.614;37.326;2024-02-15T02:33:47;7.9;;;2.9;;
51515;SDS011;37603;55.614;37.326;2024-02-15T02:39:42;6.7;;;2.9;;
51515;SDS011;37603;55.614;37.326;2024-02-15T02:45:40;7.1;;;2.8;;
51515;SDS011;37603;55.614;37.326;2024-02-15T02:51:39;9.2;;;2.9;;
51515;SDS011;37603;55.614;37.326;2024-02-15T02:57:38;6.7;;;2.8;;
51515;SDS011;37603;55.614;37.326;2024-02-15T03:03:36;9.5;;;2.9;;
51515;SDS011;37603;55.614;37.326;2024-02-15T03:09:34;7.1;;;3.0;;
51515;SDS011;37603;55.614;37.326;2024-02-15T03:15:32;8.1;;;3.5;;
51515;SDS011;37603;55.614;37.326;2024-02-15T03:21:31;6.0;;;2.9;;
51515;SDS011;37603;55.614;37.326;2024-02-15T03:27:29;8.0;;;3.5;;
51515;SDS011;37603;55.614;37.326;2024-02-15T03:33:28;7.6;;;3.0;;
51515;SDS011;37603;55.614;37.326;2024-02-15T03:39:26;7.7;;;3.1;;
51515;SDS011;37603;55.614;37.326;2024-02-15T03:45:24;7.0;;;3.0;;
51515;SDS011;37603;55.614;37.326;2024-02-15T03:51:23;9.3;;;3.0;;
51515;SDS011;37603;55.614;37.326;2024-02-15T03:57:21;6.4;;;2.6;;
51515;SDS011;37603;55.614;37.326;2024-02-15T04:03:20;9.1;;;3.4;;
51515;SDS011;37603;55.614;37.326;2024-02-15T04:09:18;7.6;;;3.4;;
51515;SDS011;37603;55.614;37.326;2024-02-15T04:15:16;8.5;;;3.1;;
51515;SDS011;37603;55.614;37.326;2024-02-15T04:21:15;10.1;;;3.0;;
51515;SDS011;37603;55.614;37.326;2024-02-15T04:27:13;9.6;;;3.7;;
51515;SDS011;37603;55.614;37.326;2024-02-15T04:33:11;6.7;;;3.2;;
51515;SDS011;37603;55.614;37.326;2024-02-15T04:39:11;7.2;;;3.2;;
51515;SDS011;37603;55.614;37.326;2024-02-15T04:45:09;6.7;;;3.2;;
51515;SDS011;37603;55.614;37.326;2024-02-15T04:51:07;9.5;;;3.1;;
51515;SDS011;37603;55.614;37.326;2024-02-15T04:57:05;6.2;;;2.5;;
51515;SDS011;37603;55.614;37.326;2024-02-15T05:03:04;6.5;;;2.8;;
51515;SDS011;37603;55.614;37.326;2024-02-15T05:09:02;9.4;;;3.2;;
51515;SDS011;37603;55.614;37.326;2024-02-15T05:15:00;9.0;;;3.3;;
51515;SDS011;37603;55.614;37.326;2024-02-15T05:20:58;8.8;;;3.7;;
51515;SDS011;37603;55.614;37.326;2024-02-15T05:26:57;8.0;;;3.1;;
51515;SDS011;37603;55.614;37.326;2024-02-15T05:32:55;8.1;;;3.4;;
51515;SDS011;37603;55.614;37.326;2024-02-15T05:38:53;8.3;;;2.8;;
51515;SDS011;37603;55.614;37.326;2024-02-15T05:44:52;9.8;;;3.4;;
51515;SDS011;37603;55.614;37.326;2024-02-15T05:50:50;8.8;;;3.5;;
51515;SDS011;37603;55.614;37.326;2024-02-15T05:56:48;5.8;;;3.0;;
51515;SDS011;37603;55.614;37.326;2024-02-15T06:02:47;6.5;;;2.6;;
51515;SDS011;37603;55.614;37.326;2024-02-15T06:08:46;8.1;;;3.3;;
51515;SDS011;37603;55.614;37.326;2024-02-15T06:14:43;6.2;;;3.1;;
51515;SDS011;37603;55.614;37.326;2024-02-15T06:20:42;6.3;;;3.2;;
51515;SDS011;37603;55.614;37.326;2024-02-15T06:26:40;6.7;;;3.0;;
51515;SDS011;37603;55.614;37.326;2024-02-15T06:32:38;6.8;;;3.1;;
51515;SDS011;37603;55.614;37.326;2024-02-15T06:38:37;8.5;;;3.5;;
51515;SDS011;37603;55.614;37.326;2024-02-15T06:44:35;8.1;;;3.2;;
51515;SDS011;37603;55.614;37.326;2024-02-15T06:50:33;9.4;;;3.9;;
51515;SDS011;37603;55.614;37.326;2024-02-15T06:56:35;9.2;;;3.6;;
51515;SDS011;37603;55.614;37.326;2024-02-15T07:02:30;7.6;;;3.4;;
51515;SDS011;37603;55.614;37.326;2024-02-15T07:08:28;8.7;;;3.2;;
51515;SDS011;37603;55.614;37.326;2024-02-15T07:14:27;6.7;;;3.4;;
51515;SDS011;37603;55.614;37.326;2024-02-15T07:20:25;8.7;;;3.4;;
51515;SDS011;37603;55.614;37.326;2024-02-15T07:26:24;7.3;;;3.3;;
51515;SDS011;37603;55.614;37.326;2024-02-15T07:32:22;7.2;;;3.0;;
51515;SDS011;37603;55.614;37.326;2024-02-15T07:38:20;5.6;;;2.9;;
51515;SDS011;37603;55.614;37.326;2024-02-15T07:44:18;10.3;;;4.1;;
51515;SDS011;37603;55.614;37.326;2024-02-15T07:50:17;7.9;;;3.2;;
51515;SDS011;37603;55.614;37.326;2024-02-15T07:56:16;6.1;;;3.1;;
51515;SDS011;37603;55.614;37.326;2024-02-15T08:02:14;11.1;;;3.6;;
51515;SDS011;37603;55.614;37.326;2024-02-15T08:08:12;8.1;;;3.5;;
51515;SDS011;37603;55.614;37.326;2024-02-15T08:14:10;9.6;;;3.4;;
51515;SDS011;37603;55.614;37.326;2024-02-15T08:20:09;7.7;;;3.9;;
51515;SDS011;37603;55.614;37.326;2024-02-15T08:26:07;6.5;;;3.2;;
51515;SDS011;37603;55.614;37.326;2024-02-15T08:32:05;8.3;;;3.5;;
51515;SDS011;37603;55.614;37.326;2024-02-15T08:38:04;7.7;;;3.5;;
51515;SDS011;37603;55.614;37.326;2024-02-15T08:44:02;6.7;;;3.7;;
51515;SDS011;37603;55.614;37.326;2024-02-15T08:50:00;9.7;;;3.6;;
51515;SDS011;37603;55.614;37.326;2024-02-15T08:55:59;8.6;;;3.6;;
51515;SDS011;37603;55.614;37.326;2024-02-15T09:01:57;10.2;;;3.9;;
51515;SDS011;37603;55.614;37.326;2024-02-15T09:07:56;15.3;;;4.0;;
51515;SDS011;37603;55.614;37.326;2024-02-15T09:13:54;10.1;;;3.9;;
51515;SDS011;37603;55.614;37.326;2024-02-15T09:19:52;11.3;;;4.2;;
51515;SDS011;37603;55.614;37.326;2024-02-15T09:25:51;12.0;;;3.7;;
51515;SDS011;37603;55.614;37.326;2024-02-15T09:31:49;9.3;;;3.8;;
51515;SDS011;37603;55.614;37.326;2024-02-15T09:37:48;12.1;;;4.5;;
51515;SDS011;37603;55.614;37.326;2024-02-15T09:43:46;9.0;;;4.1;;
51515;SDS011;37603;55.614;37.326;2024-02-15T09:49:45;13.2;;;4.4;;
51515;SDS011;37603;55.614;37.326;2024-02-15T09:55:43;9.8;;;4.4;;
51515;SDS011;37603;55.614;37.326;2024-02-15T10:01:41;11.4;;;4.1;;
51515;SDS011;37603;55.614;37.326;2024-02-15T10:07:40;12.2;;;4.2;;
51515;SDS011;37603;55.614;37.326;2024-02-15T10:13:38;12.5;;;4.4;;
51515;SDS011;37603;55.614;37.326;2024-02-15T10:19:37;10.6;;;4.4;;
51515;SDS011;37603;55.614;37.326;2024-02-15T10:25:35;9.1;;;4.3;;
51515;SDS011;37603;55.614;37.326;2024-02-15T10:31:33;9.6;;;4.0;;
51515;SDS011;37603;55.614;37.326;2024-02-15T10:37:32;11.3;;;3.9;;
51515;SDS011;37603;55.614;37.326;2024-02-15T10:43:30;12.7;;;4.4;;
51515;SDS011;37603;55.614;37.326;2024-02-15T10:55:35;10.9;;;4.7;;
51515;SDS011;37603;55.614;37.326;2024-02-15T11:01:25;10.3;;;4.3;;
51515;SDS011;37603;55.614;37.326;2024-02-15T11:07:24;11.1;;;5.1;;
51515;SDS011;37603;55.614;37.326;2024-02-15T11:13:22;11.6;;;4.4;;
51515;SDS011;37603;55.614;37.326;2024-02-15T11:25:19;11.7;;;4.3;;
51515;SDS011;37603;55.614;37.326;2024-02-15T11:49:14;12.3;;;4.4;;
51515;SDS011;37603;55.614;37.326;2024-02-15T11:55:11;13.3;;;4.1;;
51515;SDS011;37603;55.614;37.326;2024-02-15T12:01:11;10.0;;;4.2;;
51515;SDS011;37603;55.614;37.326;2024-02-15T12:07:08;11.3;;;4.2;;
51515;SDS011;37603;55.614;37.326;2024-02-15T12:13:06;12.4;;;4.2;;
51515;SDS011;37603;55.614;37.326;2024-02-15T12:19:05;11.7;;;4.2;;
51515;SDS011;37603;55.614;37.326;2024-02-15T12:25:04;7.8;;;3.6;;
51515;SDS011;37603;55.614;37.326;2024-02-15T12:31:02;12.5;;;4.7;;
51515;SDS011;37603;55.614;37.326;2024-02-15T12:37:07;12.4;;;4.5;;
51515;SDS011;37603;55.614;37.326;2024-02-15T12:42:59;11.8;;;4.3;;
51515;SDS011;37603;55.614;37.326;2024-02-15T13:00:54;10.8;;;4.7;;
51515;SDS011;37603;55.614;37.326;2024-02-15T13:06:53;11.9;;;4.5;;
51515;SDS011;37603;55.614;37.326;2024-02-15T13:12:52;10.5;;;4.2;;
51515;SDS011;37603;55.614;37.326;2024-02-15T13:18:49;8.1;;;4.4;;
51515;SDS011;37603;55.614;37.326;2024-02-15T13:24:48;14.3;;;5.1;;
51515;SDS011;37603;55.614;37.326;2024-02-15T13:30:46;13.8;;;4.4;;
51515;SDS011;37603;55.614;37.326;2024-02-15T13:36:45;9.4;;;4.5;;
51515;SDS011;37603;55.614;37.326;2024-02-15T13:42:43;15.1;;;5.0;;
51515;SDS011;37603;55.614;37.326;2024-02-15T13:48:42;10.1;;;4.5;;
51515;SDS011;37603;55.614;37.326;2024-02-15T13:54:40;12.3;;;4.4;;
51515;SDS011;37603;55.614;37.326;2024-02-15T14:00:39;10.7;;;4.2;;
51515;SDS011;37603;55.614;37.326;2024-02-15T14:06:37;9.9;;;4.1;;
51515;SDS011;37603;55.614;37.326;2024-02-15T14:12:36;12.7;;;4.8;;
51515;SDS011;37603;55.614;37.326;2024-02-15T14:18:34;11.8;;;4.1;;
51515;SDS011;37603;55.614;37.326;2024-02-15T14:24:32;9.8;;;4.8;;
51515;SDS011;37603;55.614;37.326;2024-02-15T14:30:31;10.3;;;4.2;;
51515;SDS011;37603;55.614;37.326;2024-02-15T14:36:29;11.7;;;4.2;;
51515;SDS011;37603;55.614;37.326;2024-02-15T14:42:27;12.9;;;5.0;;
51515;SDS011;37603;55.614;37.326;2024-02-15T14:48:26;15.3;;;4.7;;
51515;SDS011;37603;55.614;37.326;2024-02-15T14:54:24;9.8;;;4.3;;
51515;SDS011;37603;55.614;37.326;2024-02-15T15:00:22;11.7;;;4.4;;
51515;SDS011;37603;55.614;37.326;2024-02-15T15:06:21;11.8;;;4.7;;
51515;SDS011;37603;55.614;37.326;2024-02-15T15:12:19;11.6;;;4.4;;
51515;SDS011;37603;55.614;37.326;2024-02-15T15:18:18;12.3;;;5.3;;
51515;SDS011;37603;55.614;37.326;2024-02-15T15:24:16;13.4;;;4.9;;
51515;SDS011;37603;55.614;37.326;2024-02-15T15:30:15;12.5;;;4.9;;
51515;SDS011;37603;55.614;37.326;2024-02-15T15:36:13;10.6;;;4.4;;
51515;SDS011;37603;55.614;37.326;2024-02-15T15:42:11;10.1;;;4.5;;
51515;SDS011;37603;55.614;37.326;2024-02-15T15:48:10;13.4;;;4.8;;
51515;SDS011;37603;55.614;37.326;2024-02-15T15:54:08;9.4;;;4.4;;
51515;SDS011;37603;55.614;37.326;2024-02-15T16:00:07;12.4;;;5.5;;
51515;SDS011;37603;55.614;37.326;2024-02-15T16:06:05;11.0;;;4.4;;
51515;SDS011;37603;55.614;37.326;2024-02-15T16:12:04;16.3;;;5.7;;
51515;SDS011;37603;55.614;37.326;2024-02-15T16:18:02;12.9;;;5.5;;
51515;SDS011;37603;55.614;37.326;2024-02-15T16:24:00;10.6;;;4.6;;
51515;SDS011;37603;55.614;37.326;2024-02-15T16:29:59;10.3;;;4.5;;
51515;SDS011;37603;55.614;37.326;2024-02-15T16:35:57;12.3;;;4.5;;
51515;SDS011;37603;55.614;37.326;2024-02-15T16:41:55;9.2;;;4.6;;
51515;SDS011;37603;55.614;37.326;2024-02-15T16:47:54;10.7;;;5.2;;
51515;SDS011;37603;55.614;37.326;2024-02-15T16:53:53;17.0;;;5.4;;
51515;SDS011;37603;55.614;37.326;2024-02-15T16:59:51;12.3;;;5.0;;
51515;SDS011;37603;55.614;37.326;2024-02-15T17:05:49;9.4;;;4.3;;
51515;SDS011;37603;55.614;37.326;2024-02-15T17:11:47;14.5;;;5.9;;
51515;SDS011;37603;55.614;37.326;2024-02-15T17:17:46;10.6;;;4.5;;
51515;SDS011;37603;55.614;37.326;2024-02-15T17:23:44;13.4;;;5.8;;
51515;SDS011;37603;55.614;37.326;2024-02-15T17:29:43;16.1;;;5.9;;
51515;SDS011;37603;55.614;37.326;2024-02-15T17:35:41;11.7;;;4.6;;
51515;SDS011;37603;55.614;37.326;2024-02-15T17:41:41;13.4;;;5.4;;
51515;SDS011;37603;55.614;37.326;2024-02-15T17:47:38;13.5;;;5.2;;
51515;SDS011;37603;55.614;37.326;2024-02-15T17:53:36;11.8;;;4.5;;
51515;SDS011;37603;55.614;37.326;2024-02-15T17:59:35;11.5;;;5.5;;
51515;SDS011;37603;55.614;37.326;2024-02-15T18:05:33;12.3;;;5.8;;
51515;SDS011;37603;55.614;37.326;2024-02-15T18:11:32;13.6;;;5.7;;
51515;SDS011;37603;55.614;37.326;2024-02-15T18:17:30;12.1;;;5.4;;
51515;SDS011;37603;55.614;37.326;2024-02-15T18:23:28;13.1;;;5.5;;
51515;SDS011;37603;55.614;37.326;2024-02-15T18:29:27;15.8;;;5.6;;
51515;SDS011;37603;55.614;37.326;2024-02-15T18:35:25;15.4;;;6.0;;
51515;SDS011;37603;55.614;37.326;2024-02-15T18:41:24;13.4;;;5.5;;
51515;SDS011;37603;55.614;37.326;2024-02-15T18:47:22;12.5;;;5.0;;
51515;SDS011;37603;55.614;37.326;2024-02-15T18:53:21;12.0;;;5.2;;
51515;SDS011;37603;55.614;37.326;2024-02-15T18:59:19;10.8;;;5.8;;
51515;SDS011;37603;55.614;37.326;2024-02-15T19:05:17;13.0;;;5.4;;
51515;SDS011;37603;55.614;37.326;2024-02-15T19:11:16;13.2;;;6.0;;
51515;SDS011;37603;55.614;37.326;2024-02-15T19:17:14;14.4;;;5.5;;
51515;SDS011;37603;55.614;37.326;2024-02-15T19:23:13;14.1;;;5.2;;
51515;SDS011;37603;55.614;37.326;2024-02-15T19:29:12;14.6;;;5.1;;
51515;SDS011;37603;55.614;37.326;2024-02-15T19:35:09;15.1;;;6.1;;
51515;SDS011;37603;55.614;37.326;2024-02-15T19:41:08;14.2;;;5.5;;
51515;SDS011;37603;55.614;37.326;2024-02-15T19:47:06;16.0;;;5.7;;
51515;SDS011;37603;55.614;37.326;2024-02-15T19:53:05;11.5;;;5.3;;
51515;SDS011;37603;55.614;37.326;2024-02-15T19:59:03;15.7;;;5.8;;
51515;SDS011;37603;55.614;37.326;2024-02-15T20:05:02;12.4;;;5.4;;
51515;SDS011;37603;55.614;37.326;2024-02-15T20:11:00;14.1;;;5.5;;
51515;SDS011;37603;55.614;37.326;2024-02-15T20:16:58;12.4;;;6.2;;
51515;SDS011;37603;55.614;37.326;2024-02-15T20:22:57;12.5;;;5.6;;
51515;SDS011;37603;55.614;37.326;2024-02-15T20:28:55;14.0;;;5.5;;
51515;SDS011;37603;55.614;37.326;2024-02-15T20:34:54;12.5;;;5.7;;
51515;SDS011;37603;55.614;37.326;2024-02-15T20:40:52;15.7;;;5.5;;
51515;SDS011;37603;55.614;37.326;2024-02-15T20:46:50;16.2;;;6.1;;
51515;SDS011;37603;55.614;37.326;2024-02-15T20:52:49;11.3;;;5.0;;
51515;SDS011;37603;55.614;37.326;2024-02-15T20:58:47;12.7;;;5.4;;
51515;SDS011;37603;55.614;37.326;2024-02-15T21:04:46;15.0;;;5.4;;
51515;SDS011;37603;55.614;37.326;2024-02-15T21:10:44;13.0;;;4.7;;
51515;SDS011;37603;55.614;37.326;2024-02-15T21:16:42;15.4;;;5.1;;
51515;SDS011;37603;55.614;37.326;2024-02-15T21:22:41;12.0;;;5.5;;
51515;SDS011;37603;55.614;37.326;2024-02-15T21:28:39;14.2;;;6.4;;
51515;SDS011;37603;55.614;37.326;2024-02-15T21:34:38;12.6;;;5.4;;
51515;SDS011;37603;55.614;37.326;2024-02-15T21:40:36;12.1;;;4.9;;
51515;SDS011;37603;55.614;37.326;2024-02-15T21:46:34;14.8;;;5.6;;
51515;SDS011;37603;55.614;37.326;2024-02-15T21:52:33;14.0;;;6.2;;
51515;SDS011;37603;55.614;37.326;2024-02-15T21:58:31;11.7;;;5.6;;
51515;SDS011;37603;55.614;37.326;2024-02-15T22:04:30;14.3;;;5.1;;
51515;SDS011;37603;55.614;37.326;2024-02-15T22:10:28;14.5;;;5.1;;
51515;SDS011;37603;55.614;37.326;2024-02-15T22:16:27;13.0;;;5.5;;
51515;SDS011;37603;55.614;37.326;2024-02-15T22:22:25;11.8;;;5.5;;
51515;SDS011;37603;55.614;37.326;2024-02-15T22:28:23;14.0;;;5.9;;
51515;SDS011;37603;55.614;37.326;2024-02-15T22:34:22;14.5;;;6.2;;
51515;SDS011;37603;55.614;37.326;2024-02-15T22:40:20;10.5;;;5.3;;
51515;SDS011;37603;55.614;37.326;2024-02-15T22:46:19;16.0;;;5.1;;
51515;SDS011;37603;55.614;37.326;2024-02-15T22:52:17;14.6;;;5.3;;
51515;SDS011;37603;55.614;37.326;2024-02-15T22:58:15;15.5;;;5.7;;
51515;SDS011;37603;55.614;37.326;2024-02-15T23:04:14;13.0;;;5.3;;
51515;SDS011;37603;55.614;37.326;2024-02-15T23:10:12;11.9;;;5.4;;
51515;SDS011;37603;55.614;37.326;2024-02-15T23:16:11;14.5;;;6.2;;
51515;SDS011;37603;55.614;37.326;2024-02-15T23:22:09;16.4;;;6.0;;
51515;SDS011;37603;55.614;37.326;2024-02-15T23:28:08;15.1;;;5.8;;
51515;SDS011;37603;55.614;37.326;2024-02-15T23:34:06;12.8;;;6.1;;
51515;SDS011;37603;55.614;37.326;2024-02-15T23:40:06;16.8;;;6.1;;
51515;SDS011;37603;55.614;37.326;2024-02-15T23:46:03;12.8;;;5.5;;
51515;SDS011;37603;55.614;37.326;2024-02-15T23:52:01;13.3;;;5.4;;
51515;SDS011;37603;55.614;37.326;2024-02-15T23:58:00;14.9;;;5.3;;
